• Join FlightAware (Why Join?)
  • Login
  • US Flag 
01:42PM EST


 

Airport Tracker/Info


-or-


 

Live Flight TrackerFlight Track Log ✈ TGW436 ✈ 09-May-2013 ✈ YMML / MEL - YBAS / ASP

Flight Track Log - Related Links

Times and Time Zones

All times are in EDT time to prevent confusion due to time zone crossing. See the TGW436 flight status page for this flight to view local times or setup timezone preferences in your user account.

Time Position Orientation Groundspeed Altitude Reporting Facility
EDT Latitude Longitude Course Direction KTS MPH feet Rate Location/Type
07:13PM -37.6650 144.8370 345° North 152 175 400  Level FlightAware
07:13PM -37.6440 144.8330 351° North 153 176 1,900 2,040 Climbing FlightAware
07:14PM -37.6300 144.8310 354° North 176 203 2,100 1,692 Climbing FlightAware
07:14PM -37.6064 144.8268 354° North 191 220 3,000 1,029 Climbing Aus ATC (RADAR)
07:14PM -37.5990 144.8250 354° North 222 255 2,700 732 Descending FlightAware
07:15PM -37.5660 144.8180 350° North 267 307 3,500 1,650 Climbing FlightAware
07:15PM -37.5490 144.8050 329° Northwest 289 333 3,800 2,308 Climbing FlightAware
07:15PM -37.5185 144.7712 329° Northwest 301 346 5,000 1,800 Climbing Aus ATC (RADAR)
07:16PM -37.5180 144.7700 329° Northwest 313 360 4,700 1,742 Descending FlightAware
07:16PM -37.4910 144.7390 318° Northwest 332 382 5,900 3,545 Climbing FlightAware
07:16PM -37.4612 144.7057 318° Northwest 329 379 7,300 2,800 Climbing Aus ATC (RADAR)
07:16PM -37.4540 144.6970 318° Northwest 345 397 7,300 1,667 Level FlightAware
07:17PM -37.4230 144.6630 319° Northwest 351 404 8,300 3,429 Climbing FlightAware
07:17PM -37.3876 144.6246 319° Northwest 349 402 10,100 3,000 Climbing Aus ATC (RADAR)
07:17PM -37.3860 144.6220 319° Northwest 361 415 9,800 2,087 Descending FlightAware
07:18PM -37.3360 144.5670 319° Northwest 366 421 11,700 3,081 Climbing FlightAware
07:19PM -37.2859 144.5113 319° Northwest 363 418 13,600 2,133 Climbing Aus ATC (RADAR)
07:19PM -37.2800 144.5050 319° Northwest 373 429 13,300 1,886 Descending FlightAware
07:19PM -37.2392 144.4598 319° Northwest 377 434 14,700 2,400 Climbing Aus ATC (RADAR)
07:19PM -37.2200 144.4380 319° Northwest 387 445 14,900 2,933 Climbing FlightAware
07:20PM -37.1779 144.3923 319° Northwest 381 438 16,900 2,850 Climbing Aus ATC (RADAR)
07:20PM -37.1660 144.3790 319° Northwest 389 448 16,800 1,543 Descending FlightAware
07:21PM -37.1302 144.3397 319° Northwest 387 445 17,800 1,333 Climbing Aus ATC (RADAR)
07:21PM -37.1030 144.3100 319° Northwest 412 474 17,800 1,800 Level FlightAware
07:21PM -37.0586 144.2611 319° Northwest 406 467 19,300 1,950 Climbing Aus ATC (RADAR)
07:22PM -37.0460 144.2480 319° Northwest 410 472 19,100 1,179 Descending FlightAware
07:22PM -36.9790 144.1750 319° Northwest 426 490 20,400 1,624 Climbing FlightAware
07:23PM -36.9200 144.1100 319° Northwest 428 493 21,400 1,553 Climbing FlightAware
07:24PM -36.8500 144.0340 319° Northwest 435 501 22,600 1,890 Climbing FlightAware
07:24PM -36.8030 143.9823 319° Northwest 437 503 23,700 1,350 Climbing Aus ATC (RADAR)
07:24PM -36.7880 143.9660 319° Northwest 449 517 23,500 1,371 Descending FlightAware
07:25PM -36.7473 143.9239 319° Northwest 444 511 24,500 1,200 Climbing Aus ATC (RADAR)
07:25PM -36.7260 143.9050 319° Northwest 450 518 24,300 1,029 Descending FlightAware
07:25PM -36.6881 143.8685 319° Northwest 452 520 25,100 1,333 Climbing Aus ATC (RADAR)
07:26PM -36.6470 143.8280 319° Northwest 456 525 25,300 806 Climbing FlightAware
07:26PM -36.5790 143.7620 322° Northwest 471 542 26,000 1,448 Climbing FlightAware
07:27PM -36.5439 143.7276 322° Northwest 465 535 26,700 1,067 Climbing Aus ATC (RADAR)
07:27PM -36.5020 143.6870 322° Northwest 474 545 26,800 526 Climbing FlightAware
07:28PM -36.4520 143.6380 322° Northwest 479 551 27,200 1,524 Climbing FlightAware
07:28PM -36.3862 143.5733 322° Northwest 480 552 28,400 1,200 Climbing Aus ATC (RADAR)
07:29PM -36.3600 143.5490 322° Northwest 489 563 28,200 720 Descending FlightAware
07:29PM -36.2958 143.4877 322° Northwest 490 564 29,000 667 Climbing Aus ATC (RADAR)
07:29PM -36.2780 143.4700 322° Northwest 493 567 28,700 857 Descending FlightAware
07:30PM -36.2318 143.4263 322° Northwest 496 571 29,500 982 Climbing Aus ATC (RADAR)
07:30PM -36.1760 143.3710 322° Northwest 505 581 29,600 960 Climbing FlightAware
07:31PM -36.1397 143.3374 322° Northwest 500 575 30,300 900 Climbing Aus ATC (RADAR)
07:31PM -36.1030 143.3000 322° Northwest 508 585 30,200 1,125 Descending FlightAware
07:32PM -35.9924 143.1959 322° Northwest 499 574 31,800 1,373 Climbing Aus ATC (RADAR)
07:32PM -35.9458 143.1518 323° Northwest 503 579 32,100 742 Climbing Aus ATC (RADAR)
07:33PM -35.8230 143.0330 323° Northwest 504 580 33,000 1,200 Climbing FlightAware
07:34PM -35.7522 142.9666 323° Northwest 497 572 34,200 1,552 Climbing Aus ATC (RADAR)
07:34PM -35.7065 142.9232 322° Northwest 496 571 34,500 -324 Climbing Aus ATC (RADAR)
07:35PM -35.6920 142.9080 322° Northwest 499 574 34,000 -176 Descending FlightAware
07:35PM -35.6425 142.8629 322° Northwest 496 571 34,400  Climbing Aus ATC (RADAR)
07:35PM -35.6140 142.8340 322° Northwest 500 575 34,000  Descending FlightAware
07:36PM -35.5692 142.7929 322° Northwest 496 571 34,400  Climbing Aus ATC (RADAR)
07:36PM -35.5370 142.7610 322° Northwest 500 575 34,000 -353 Descending FlightAware
07:37PM -35.4580 142.6870 323° Northwest 499 574 34,000  Level FlightAware
07:37PM -35.3810 142.6150 323° Northwest 499 574 34,000  Level FlightAware
07:38PM -35.3090 142.5470 322° Northwest 500 575 34,000  Level FlightAware
07:39PM -35.2210 142.4650 323° Northwest 495 570 34,000 220 Level FlightAware
07:39PM -35.1476 142.3968 323° Northwest 501 577 34,300  Climbing Aus ATC (RADAR)
07:40PM -35.1460 142.3950 323° Northwest 502 578 34,000 -419 Descending FlightAware
07:40PM -35.0750 142.3290 323° Northwest 503 579 34,000  Level FlightAware
07:41PM -34.9900 142.2490 322° Northwest 503 579 34,000  Level FlightAware
07:42PM -34.9150 142.1800 323° Northwest 503 579 34,000  Level FlightAware
07:42PM -34.8320 142.1030 323° Northwest 506 582 34,000 250 Level FlightAware
07:43PM -34.7770 142.0532 323° Northwest 503 579 34,300  Climbing Aus ATC (RADAR)
07:43PM -34.7730 142.0490 323° Northwest 506 582 34,000 -340 Descending FlightAware
07:44PM -34.6850 141.9680 323° Northwest 508 585 34,000 290 Level FlightAware
07:44PM -34.6462 141.9329 323° Northwest 505 581 34,300  Climbing Aus ATC (RADAR)
07:44PM -34.6140 141.9020 323° Northwest 507 583 34,000  Descending FlightAware
07:44PM -34.5993 141.8899 323° Northwest 507 583 34,300  Climbing Aus ATC (RADAR)
07:45PM -34.5240 141.8200 323° Northwest 506 582 34,000 -231 Descending FlightAware
07:46PM -34.4600 141.7620 323° Northwest 506 582 34,000 486 Level FlightAware
07:46PM -34.4501 141.7534 323° Northwest 503 579 34,300 486 Climbing Aus ATC (RADAR)
07:46PM -34.3849 141.6934 323° Northwest 505 581 34,300 -375 Level Aus ATC (RADAR)
07:47PM -34.3670 141.6760 323° Northwest 507 583 34,000 -340 Descending FlightAware
07:47PM -34.2970 141.6130 323° Northwest 507 583 34,000 316 Level FlightAware
07:47PM -34.2535 141.5748 323° Northwest 505 581 34,300  Climbing Aus ATC (RADAR)
07:48PM -34.2330 141.5550 323° Northwest 507 583 34,000 -184 Descending FlightAware
07:49PM -34.0870 141.4230 323° Northwest 505 581 34,000 186 Level FlightAware
07:49PM -34.0298 141.3716 323° Northwest 506 582 34,300  Climbing Aus ATC (RADAR)
07:50PM -34.0240 141.3650 323° Northwest 505 581 34,000  Descending FlightAware
07:50PM -33.9289 141.2810 323° Northwest 496 571 34,300  Climbing Aus ATC (RADAR)
07:50PM -33.9610 141.3080 323° Northwest 505 581 34,000 -409 Descending FlightAware
07:51PM -33.8970 141.2500 323° Northwest 505 581 34,000 -468 Level FlightAware
07:52PM -33.7802 141.1484 323° Northwest 499 574 33,400  Descending Aus ATC (RADAR)
07:52PM -33.8180 141.1780 323° Northwest 505 581 34,000 -960 Climbing FlightAware
07:53PM -33.6884 141.0661 323° Northwest 499 574 32,600 -1,636 Descending Aus ATC (RADAR)
07:53PM -33.6640 141.0430 323° Northwest 500 575 32,500 -679 Descending FlightAware
07:53PM -33.6050 140.9910 324° Northwest 496 571 32,000 -400 Descending FlightAware
07:54PM -33.5300 140.9240 323° Northwest 497 572 32,000  Level FlightAware
07:55PM -33.4670 140.8680 323° Northwest 497 572 32,000 585 Level FlightAware
07:55PM -33.4399 140.8454 323° Northwest 493 567 32,400 667 Climbing Aus ATC (RADAR)
07:55PM -33.3760 140.7892 323° Northwest 490 564 32,400  Level Aus ATC (RADAR)
07:56PM -33.2930 140.7161 324° Northwest 493 567 32,400  Level Aus ATC (RADAR)
07:56PM -33.2850 140.7080 324° Northwest 32,000  Descending FlightAware
07:57PM -33.2200 140.6522 324° Northwest 490 564 32,400  Climbing Aus ATC (RADAR)
07:57PM -33.2090 140.6410 324° Northwest 499 574 32,000  Descending FlightAware
07:58PM -33.1361 140.5782 324° Northwest 498 573 32,400  Climbing Aus ATC (RADAR)
07:58PM -33.1270 140.5690 324° Northwest 499 574 32,000  Descending FlightAware
07:58PM -33.0898 140.5376 324° Northwest 497 572 32,400  Climbing Aus ATC (RADAR)
07:58PM -33.0450 140.4980 324° Northwest 499 574 32,000 -348 Descending FlightAware
07:59PM -32.9720 140.4340 324° Northwest 497 572 32,000 393 Level FlightAware
07:59PM -32.9217 140.3905 324° Northwest 502 578 32,400  Climbing Aus ATC (RADAR)
08:00PM -32.8980 140.3700 324° Northwest 497 572 32,000  Descending FlightAware
08:00PM -32.8107 140.2944 324° Northwest 498 573 32,400  Climbing Aus ATC (RADAR)
08:01PM -32.8150 140.2960 324° Northwest 497 572 32,000 -545 Descending FlightAware
08:01PM -32.7380 140.2300 324° Northwest 495 570 32,000  Level FlightAware
08:02PM -32.6650 140.1670 324° Northwest 495 570 32,000 585 Level FlightAware
08:02PM -32.6542 140.1596 324° Northwest 492 566 32,400  Climbing Aus ATC (RADAR)
08:03PM -32.5840 140.0970 324° Northwest 486 559 32,000  Descending FlightAware
08:03PM -32.5246 140.0477 324° Northwest 490 564 32,400  Climbing Aus ATC (RADAR)
08:04PM -32.4820 140.0090 324° Northwest 493 567 32,000 -324 Descending FlightAware
08:04PM -32.3970 139.9370 324° Northwest 484 557 32,000 222 Level FlightAware
08:05PM -32.3219 139.8730 324° Northwest 491 565 32,300  Climbing Aus ATC (RADAR)
08:05PM -32.3270 139.8770 324° Northwest 483 556 32,000  Descending FlightAware
08:05PM -32.2580 139.8187 324° Northwest 489 563 32,300  Climbing Aus ATC (RADAR)
08:06PM -32.2520 139.8120 324° Northwest 481 554 32,000  Descending FlightAware
08:06PM -32.1759 139.7477 324° Northwest 488 562 32,300  Climbing Aus ATC (RADAR)
08:07PM -32.1550 139.7280 324° Northwest 480 552 32,000  Descending FlightAware
08:07PM -32.1124 139.6947 324° Northwest 483 556 32,300  Climbing Aus ATC (RADAR)
08:07PM -32.0690 139.6550 324° Northwest 479 551 32,000  Descending FlightAware
08:08PM -32.0219 139.6183 324° Northwest 481 554 32,300  Climbing Aus ATC (RADAR)
08:08PM -32.0090 139.6010 324° Northwest 479 551 32,000 -300 Descending FlightAware
08:09PM -31.9270 139.5340 325° Northwest 477 549 32,000 182 Level FlightAware
08:09PM -31.8676 139.4872 325° Northwest 479 551 32,200  Climbing Aus ATC (RADAR)
08:09PM -31.8670 139.4810 325° Northwest 477 549 32,000  Descending FlightAware
08:10PM -31.7768 139.4109 325° Northwest 480 552 32,200  Climbing Aus ATC (RADAR)
08:10PM -31.7920 139.4150 325° Northwest 477 549 32,000 171 Descending FlightAware
08:10PM -31.7125 139.3565 325° Northwest 486 559 32,300  Climbing Aus ATC (RADAR)
08:11PM -31.7320 139.3620 325° Northwest 477 549 32,000  Descending FlightAware
08:11PM -31.6310 139.2856 325° Northwest 486 559 32,300  Climbing Aus ATC (RADAR)
08:11PM -31.6720 139.3080 325° Northwest 477 549 32,000  Descending FlightAware
08:12PM -31.5596 139.2262 325° Northwest 478 550 32,300  Climbing Aus ATC (RADAR)
08:12PM -31.6130 139.2550 325° Northwest 477 549 32,000  Descending FlightAware
08:13PM -31.4807 139.1620 325° Northwest 466 536 32,300  Climbing Aus ATC (RADAR)
08:13PM -31.5530 139.2020 325° Northwest 477 549 32,000 -720 Descending FlightAware
08:13PM -31.4367 139.1274 325° Northwest 466 536 32,000  Level Aus ATC (RADAR)
08:14PM -31.4780 139.1360 325° Northwest 477 549 32,000 -1,000 Level FlightAware
08:14PM -31.3295 139.0343 325° Northwest 479 551 31,000  Descending Aus ATC (RADAR)
08:14PM -31.4180 139.0830 325° Northwest 477 549 32,000 -750 Climbing FlightAware
08:15PM -31.2759 138.9893 325° Northwest 478 550 30,600  Descending Aus ATC (RADAR)
08:15PM -31.3580 139.0300 325° Northwest 477 549 32,000 -310 Climbing FlightAware
08:16PM -31.1674 138.9002 325° Northwest 481 554 30,300  Descending Aus ATC (RADAR)
08:16PM -31.2980 138.9780 325° Northwest 477 549 32,000 2,267 Climbing FlightAware
08:16PM -31.2380 138.9250 323° Northwest 477 549 32,000  Level FlightAware
08:17PM -31.1630 138.8590 323° Northwest 477 549 32,000  Level FlightAware
08:18PM -31.1030 138.8060 323° Northwest 477 549 32,000 -1,186 Level FlightAware
08:19PM -30.8450 138.6339 323° Northwest 472 543 30,300 -1,437 Descending Aus ATC (RADAR)
08:19PM -30.8000 138.5983 326° Northwest 473 544 30,300 -8 Level Aus ATC (RADAR)
08:26PM -29.9967 138.0140 328° Northwest 30,000 -8 Descending Aus ATC (Calculated)
08:27PM -29.8860 137.9344 328° Northwest 30,000  Level Aus ATC (Calculated)
08:27PM -29.8860 137.9344 328° Northwest 30,000  Level Aus ATC (Calculated)
08:29PM -29.7049 137.8065 328° Northwest  Level Estimated
08:30PM -29.5984 137.7314 329° Northwest  Level Estimated
08:31PM -29.4918 137.6565 329° Northwest  Level Estimated
08:31PM -29.4186 137.6005 328° Northwest 30,000  Level Aus ATC (Calculated)
08:32PM -29.2691 137.4945 329° Northwest 30,000  Level Aus ATC (Calculated)
08:33PM -29.2318 137.4701 329° Northwest  Level Estimated
08:34PM -29.1481 137.4103 329° Northwest  Level Estimated
08:35PM -29.0412 137.3361 329° Northwest  Level Estimated
08:36PM -28.9344 137.2621 329° Northwest  Level Estimated
08:36PM -28.7944 137.1602 329° Northwest 30,000  Level Aus ATC (Calculated)
08:36PM -28.7944 137.1602 329° Northwest 30,000  Level Aus ATC (Calculated)
08:38PM -28.6624 137.0695 329° Northwest  Level Estimated
08:38PM -28.6510 137.0600 329° Northwest 30,000  Level Aus ATC (Calculated)
08:40PM -28.4707 136.9366 329° Northwest  Level Estimated
08:40PM -28.3818 136.8727 329° Northwest 30,000  Level Aus ATC (Calculated)
08:41PM -28.3635 136.8636 329° Northwest  Level Estimated
08:42PM -28.2442 136.7792 329° Northwest  Level Estimated
08:42PM -28.1723 136.7281 329° Northwest 30,000  Level Aus ATC (Calculated)
08:43PM -28.0764 136.6629 329° Northwest 30,000  Level Aus ATC (Calculated)
08:43PM -28.0764 136.6629 329° Northwest 30,000  Level Aus ATC (Calculated)
08:45PM -27.8957 136.5411 329° Northwest  Level Estimated
08:46PM -27.7883 136.4689 329° Northwest  Level Estimated
08:47PM -27.6808 136.3969 329° Northwest  Level Estimated
08:48PM -27.5733 136.3250 329° Northwest  Level Estimated
08:48PM -27.5966 136.3384 329° Northwest 30,000  Level Aus ATC (Calculated)
08:50PM -27.4048 136.2106 329° Northwest  Level Estimated
08:51PM -27.2971 136.1391 329° Northwest  Level Estimated
08:52PM -27.1895 136.0677 329° Northwest  Level Estimated
08:53PM -27.0818 135.9966 330° Northwest  Level Estimated
08:53PM -27.0678 135.9847 329° Northwest 30,000  Level Aus ATC (Calculated)
08:55PM -26.8756 135.8582 330° Northwest  Level Estimated
08:56PM -26.7678 135.7874 330° Northwest  Level Estimated
08:57PM -26.6600 135.7168 330° Northwest  Level Estimated
08:57PM -26.5748 135.6584 106° East 26,600  Level Aus ATC (Calculated)
08:58PM -26.5521 135.6464 330° Northwest  Level Estimated
08:58PM -26.5750 135.6590 330° Northwest 442 509 30,000  Level FlightAware
08:59PM -26.4363 135.5682 330° Northwest  Level Estimated
08:59PM -26.5120 135.6170 329° Northwest 442 509 30,000  Level FlightAware
08:59PM -26.3590 135.5166 150° Southeast 26,600  Descending Aus ATC (Calculated)
09:00PM -26.4420 135.5700 329° Northwest 442 509 30,000 2,550 Climbing FlightAware
09:00PM -26.3051 135.4813 150° Southeast 26,600  Descending Aus ATC (Calculated)
09:01PM -26.3390 135.5030 329° Northwest 443 510 30,000 2,170 Climbing FlightAware
09:01PM -26.2570 135.4500 330° Northwest 441 507 30,000  Level FlightAware
09:02PM -26.1790 135.3990 330° Northwest 442 509 30,000  Level FlightAware
09:02PM -26.0350 135.3049 150° Southeast 26,600  Descending Aus ATC (Calculated)
09:03PM -26.1060 135.3510 330° Northwest 449 517 30,000 2,720 Climbing FlightAware
09:03PM -26.0330 135.3030 329° Northwest 455 524 30,000  Level FlightAware
09:04PM -25.9540 135.2520 330° Northwest 455 524 30,000  Level FlightAware
09:05PM -25.8810 135.2050 330° Northwest 455 524 30,000  Level FlightAware
09:05PM -25.7107 135.0944 150° Southeast 26,600  Descending Aus ATC (Calculated)
09:06PM -25.8010 135.1530 330° Northwest 455 524 30,000 3,000 Climbing FlightAware
09:06PM -25.7220 135.1020 330° Northwest 453 521 30,000  Level FlightAware
09:06PM -25.5484 134.9895 150° Southeast 26,600  Descending Aus ATC (Calculated)
09:07PM -25.6510 135.0560 330° Northwest 435 501 30,000 2,550 Climbing FlightAware
09:07PM -25.4402 134.9198 150° Southeast 26,600  Descending Aus ATC (Calculated)
09:08PM -25.5750 135.0070 330° Northwest 436 502 30,000 2,914 Climbing FlightAware
09:08PM -25.5050 134.9610 329° Northwest 436 502 30,000  Level FlightAware
09:09PM -25.4260 134.9110 330° Northwest 435 501 30,000  Level FlightAware
09:10PM -25.3590 134.8680 330° Northwest 434 499 30,000  Level FlightAware
09:10PM -25.1153 134.7113 150° Southeast 26,600  Descending Aus ATC (Calculated)
09:10PM -25.2830 134.8180 329° Northwest 434 499 30,000 2,900 Climbing FlightAware
09:11PM -25.0611 134.6767 150° Southeast 26,600 -667 Descending Aus ATC (Calculated)
09:11PM -25.2090 134.7710 329° Northwest 416 479 29,500 2,057 Climbing FlightAware
09:12PM -24.9527 134.6075 150° Southeast 2,300 -750 Descending Aus ATC (Calculated)
09:12PM -25.1430 134.7290 330° Northwest 391 450 29,000 27,000 Climbing FlightAware
09:13PM -25.0750 134.6860 330° Northwest 375 432 28,400 -706 Descending FlightAware
09:13PM -24.8079 134.5156 150° Southeast 2,300 -600 Descending Aus ATC (Calculated)
09:13PM -25.0150 134.6470 329° Northwest 373 429 28,000 32,739 Climbing FlightAware
09:14PM -24.9550 134.6090 329° Northwest 372 428 27,400 -1,129 Descending FlightAware
09:14PM -24.7355 134.4697 150° Southeast 2,300 -1,333 Descending Aus ATC (Calculated)
09:15PM -24.8900 134.5680 329° Northwest 366 421 26,400 14,813 Climbing FlightAware
09:16PM -24.8090 134.5160 330° Northwest 368 423 26,000 -505 Descending FlightAware
09:16PM -24.5906 134.3782 150° Southeast 2,300 -600 Descending Aus ATC (Calculated)
09:16PM -24.7470 134.4770 330° Northwest 365 420 25,600 20,492 Climbing FlightAware
09:17PM -24.6830 134.4370 330° Northwest 356 410 24,500 -1,129 Descending FlightAware
09:17PM -24.5181 134.3325 150° Southeast 2,300 -750 Descending Aus ATC (Calculated)
09:17PM -24.4457 134.2868 150° Southeast 2,300 39,455 Level Aus ATC (Calculated)
09:18PM -24.6260 134.4000 330° Northwest 341 392 24,000 22,345 Climbing FlightAware
09:18PM -24.5740 134.3680 330° Northwest 320 368 23,900 -1,482 Descending FlightAware
09:19PM -24.3732 134.2412 150° Southeast 2,300 -2,667 Descending Aus ATC (Calculated)
09:19PM -24.5140 134.3290 329° Northwest 349 402 21,900 17,710 Climbing FlightAware
09:20PM -24.4580 134.2940 329° Northwest 349 402 20,600 -1,906 Descending FlightAware
09:20PM -24.3950 134.2550 331° Northwest 333 383 19,200 -2,188 Descending FlightAware
09:21PM -24.1556 134.1047 150° Southeast 2,300 -2,550 Descending Aus ATC (Calculated)
09:21PM -24.3430 134.2220 330° Northwest 331 381 17,500 16,750 Climbing FlightAware
09:22PM -24.0830 134.0593 150° Southeast 2,300 -2,400 Descending Aus ATC (Calculated)
09:22PM -24.2830 134.1840 330° Northwest 323 372 15,700 12,947 Climbing FlightAware
09:23PM -24.2310 134.1520 330° Northwest 314 361 14,600 -1,650 Descending FlightAware
09:23PM -24.1800 134.1190 329° Northwest 305 351 13,500 -2,118 Descending FlightAware
09:24PM -24.1250 134.0850 331° Northwest 309 356 11,600 -2,259 Descending FlightAware
09:25PM -23.8653 133.9234 150° Southeast 2,300 -1,950 Descending Aus ATC (Calculated)
09:25PM -24.0770 134.0550 330° Northwest 296 341 10,300 12,750 Climbing FlightAware
09:25PM -24.0420 134.0330 330° Northwest 296 341 9,100 -2,291 Descending FlightAware
09:26PM -24.0110 134.0140 330° Northwest 291 335 8,200 -1,745 Descending FlightAware
09:26PM -23.9770 133.9930 331° Northwest 270 311 7,500 -1,100 Descending FlightAware
09:27PM -23.9460 133.9740 331° Northwest 243 280 7,100 -873 Descending FlightAware
09:27PM -23.9210 133.9580 330° Northwest 217 250 6,700 -1,091 Descending FlightAware
09:27PM -23.8970 133.9440 332° Northwest 184 212 6,100 -1,418 Descending FlightAware
09:28PM -23.8820 133.9360 334° Northwest 174 200 5,400 -1,964 Descending FlightAware
09:28PM -23.8590 133.9260 338° Northwest 174 200 4,300 -1,900 Descending FlightAware
09:29PM -23.8400 133.9130 328° Northwest 170 196 3,500 -1,350 Descending FlightAware
09:29PM -23.8360 133.9040 296° West 166 191 3,400 -450 Descending FlightAware
09:30PM -23.8320 133.8820 281° West 157 181 3,200  Descending FlightAware
09:30PM -23.8230 133.8570 291° West 166 191 3,400 133 Climbing FlightAware
09:30PM -23.8190 133.8460 292° West 164 189 3,300 -600 Descending FlightAware
09:31PM -23.8060 133.8320 315° West 158 182 3,000 -764 Descending FlightAware
09:31PM -23.7890 133.8420 28° Northeast 148 170 2,600 -720 Descending FlightAware
09:32PM -23.7830 133.8560 65° Northeast 146 168 2,400 -764 Descending FlightAware
09:32PM -23.7930 133.8790 115° Southeast 150 173 1,900 -857 Descending FlightAware